KHNDKBVU

Guest
Details From KHND - Henderson Executive
To KBVU - Boulder City Muni
Flight Number -
Tags Generated
Created
Modified
Stats Distance 13 nm / 25 km
Max Altitude 0 ft / 0 m
Waypoints 2
Social Downloads 0
Likes 0
Share VATSIM

Download

Looking for another format? Having issues loading an existing format? Contact us
Advertisement - Login to hide

Notes

Generated

Route

KHND KBVU

ID Type Via Altitude Latitude Longitude Leg Dist Tot Dist Heading (true) Name
O KHND APT - 0 ft / 0 m 35.98098˚ -115.13293˚ - 0 nm - -
O KBVU APT - 0 ft / 0 m 35.94856˚ -114.85981˚ 13 nm 13 nm 98° / 98° BOULDER CITY MUNI

Altitude Profile

Advertisement - Login to hide

KHND

Details ICAO KHND (HSH)
Name Henderson Executive
Region United States
Timezone America/Los_Angeles (UTC-8.0)
Stats Elevation 2,492 ft / 760 m (AMSL)
Location 35.972988° -115.134228°
Runways 2
Magnetic Variation 11.631° E

METAR

KHND 130256Z 21009KT 10SM CLR 09/M21 A3021 RMK AO2 SLP241 T00941206 55001 $

Decode

TAF

TAF KHND 122320Z 1300/1324 VRB05KT P6SM SKC FM130100 18007KT P6SM SKC FM131700 VRB05KT P6SM SKC

Decode

Departure Runways

ID Width Length Bearing (true) Bearing (mag) Surface Threshold Offset Overrun Length
17L 75 ft / 23 m 5,012 ft / 1,528 m 180.58° 168.95° Asphalt 0 ft / 0 m 151 ft / 46 m
17R 98 ft / 30 m 6,515 ft / 1,986 m 180.57° 168.94° Asphalt 0 ft / 0 m 200 ft / 61 m
35L 98 ft / 30 m 6,515 ft / 1,986 m 0.57° 348.94° Asphalt 0 ft / 0 m 200 ft / 61 m
35R 75 ft / 23 m 5,012 ft / 1,528 m 0.58° 348.95° Asphalt 0 ft / 0 m 151 ft / 46 m

KBVU

Details ICAO KBVU (BLD)
Name BOULDER CITY MUNI
Region United States
Timezone America/Los_Angeles (UTC-8.0)
Stats Elevation 2,201 ft / 671 m (AMSL)
Location 35.948366° -114.859580°
Runways 3
Magnetic Variation 11.553° E

METAR

KBVU 130335Z AUTO 03005KT 10SM 10/M08 A3019 RMK AO2

Decode

TAF

Not found

Destination Runways

ID Width Length Bearing (true) Bearing (mag) Surface Threshold Offset Overrun Length
09L 60 ft / 18 m 2,197 ft / 670 m 103.75° 92.20° Asphalt 0 ft / 0 m 0 ft / 0 m
09R 75 ft / 23 m 4,792 ft / 1,461 m 103.76° 92.21° Asphalt 0 ft / 0 m 0 ft / 0 m
15 75 ft / 23 m 3,859 ft / 1,176 m 164.77° 153.22° Asphalt 0 ft / 0 m 0 ft / 0 m
27L 75 ft / 23 m 4,792 ft / 1,461 m 283.77° 272.22° Asphalt 0 ft / 0 m 0 ft / 0 m
27R 60 ft / 18 m 2,197 ft / 670 m 283.75° 272.20° Asphalt 0 ft / 0 m 0 ft / 0 m
33 75 ft / 23 m 3,859 ft / 1,176 m 344.77° 333.22° Asphalt 0 ft / 0 m 0 ft / 0 m